Terminal Aerodrome Forecast
Issued by NWS

Current Version | Previous Version | Text Only | Print | Product List | Glossary On
Versions: 1 2 3 4 5 6 7 8 9 10 11 12 13 14 15
239
FTAK31 PAJN 232022 AAC
TAFAGY
TAF AMD
PAGY 232022Z 2320/2418 VRB06KT 1SM -SN BR OVC015
     FM232300 04007KT 5SM -SN BKN030 OVC050
     FM240400 04010G18KT P6SM VCSH BKN035 OVC045
     FM241100 04018G34KT 5SM -SN BR BKN025 OVC045
      AMD LTD TO CLD VIS AND WIND=

USA.gov is the U.S. government's official web portal to all federal, state and local government web resources and services.